Time,TemperatureF,DewpointF,PressureIn,WindDirection,WindDirectionDegrees,WindSpeedMPH,WindSpeedGustMPH,Humidity,HourlyPrecipIn,Conditions,Clouds,dailyrainin,SoftwareType,DateUTC
2013-05-01 00:01:00,29.0,26.0,-100.00,North,349,1.0,3.0,88,0.00,,,0.00,,2013-05-01 06:01:00,
2013-05-01 00:11:00,29.0,26.0,-100.00,North,349,1.0,3.0,88,0.00,,,0.00,,2013-05-01 06:11:00,
2013-05-01 00:22:00,29.0,26.0,-100.00,NNW,348,1.0,3.0,89,0.00,,,0.00,,2013-05-01 06:22:00,
2013-05-01 00:32:00,28.0,25.0,-100.00,North,354,1.0,6.0,89,0.00,,,0.00,,2013-05-01 06:32:00,
2013-05-01 00:42:00,28.0,25.0,-100.00,North,354,1.0,6.0,89,0.00,,,0.00,,2013-05-01 06:42:00,
2013-05-01 00:52:00,28.0,25.0,-100.00,NNW,337,2.0,5.0,90,0.00,,,0.00,,2013-05-01 06:52:00,
2013-05-01 01:01:00,27.0,24.0,-100.00,NE,50,1.0,3.0,90,0.00,,,0.00,,2013-05-01 07:01:00,
2013-05-01 01:11:00,27.0,24.0,-100.00,NE,50,1.0,3.0,90,0.00,,,0.00,,2013-05-01 07:11:00,
2013-05-01 01:21:00,27.0,25.0,-100.00,ENE,64,1.0,3.0,91,0.00,,,0.00,,2013-05-01 07:21:00,
2013-05-01 01:32:00,27.0,25.0,-100.00,East,79,0.0,2.0,91,0.00,,,0.00,,2013-05-01 07:32:00,
2013-05-01 01:41:00,27.0,25.0,-100.00,East,79,0.0,2.0,91,0.00,,,0.00,,2013-05-01 07:41:00,
2013-05-01 01:52:00,27.0,25.0,-100.00,ENE,57,2.0,4.0,91,0.00,,,0.00,,2013-05-01 07:52:00,
2013-05-01 02:01:00,27.0,25.0,-100.00,NE,37,0.0,2.0,91,0.00,,,0.00,,2013-05-01 08:01:00,
2013-05-01 02:11:00,27.0,25.0,-100.00,NE,37,0.0,2.0,91,0.00,,,0.00,,2013-05-01 08:11:00,
2013-05-01 02:21:00,27.0,25.0,-100.00,NNE,31,0.0,2.0,91,0.00,,,0.00,,2013-05-01 08:21:00,
2013-05-01 02:31:00,27.0,25.0,-100.00,NNE,31,0.0,0.0,91,0.00,,,0.00,,2013-05-01 08:31:00,
2013-05-01 02:41:00,27.0,25.0,-100.00,NNE,31,0.0,0.0,91,0.00,,,0.00,,2013-05-01 08:41:00,
2013-05-01 02:53:00,27.0,25.0,-100.00,NNE,31,0.0,0.0,91,0.00,,,0.00,,2013-05-01 08:53:00,
2013-05-01 03:01:00,27.0,25.0,-100.00,NNE,31,0.0,0.0,91,0.00,,,0.00,,2013-05-01 09:01:00,
2013-05-01 03:11:00,27.0,25.0,-100.00,NNE,31,0.0,0.0,91,0.00,,,0.00,,2013-05-01 09:11:00,
2013-05-01 03:21:00,27.0,25.0,-100.00,NNE,31,0.0,0.0,91,0.00,,,0.00,,2013-05-01 09:21:00,
2013-05-01 03:33:00,27.0,25.0,-100.00,NNE,31,0.0,0.0,91,0.00,,,0.00,,2013-05-01 09:33:00,
2013-05-01 03:42:00,27.0,25.0,-100.00,NNE,31,0.0,0.0,91,0.00,,,0.00,,2013-05-01 09:42:00,
2013-05-01 03:53:00,27.0,25.0,-100.00,NNE,31,0.0,0.0,91,0.00,,,0.00,,2013-05-01 09:53:00,
2013-05-01 04:02:00,27.0,25.0,-100.00,NW,304,0.0,0.0,91,0.00,,,0.00,,2013-05-01 10:02:00,
2013-05-01 04:11:00,27.0,25.0,-100.00,NW,304,0.0,0.0,91,0.00,,,0.00,,2013-05-01 10:11:00,
2013-05-01 04:22:00,27.0,25.0,-100.00,NW,304,0.0,0.0,91,0.00,,,0.00,,2013-05-01 10:22:00,
2013-05-01 04:32:00,27.0,25.0,-100.00,WNW,297,0.0,0.0,91,0.00,,,0.00,,2013-05-01 10:32:00,
2013-05-01 04:42:00,27.0,25.0,-100.00,WNW,297,0.0,0.0,91,0.00,,,0.00,,2013-05-01 10:42:00,
2013-05-01 04:52:00,27.0,25.0,-100.00,WNW,297,0.0,0.0,91,0.00,,,0.00,,2013-05-01 10:52:00,
2013-05-01 05:02:00,27.0,24.0,-100.00,WNW,297,0.0,0.0,90,0.00,,,0.00,,2013-05-01 11:02:00,
2013-05-01 05:11:00,27.0,24.0,-100.00,WNW,297,0.0,0.0,90,0.00,,,0.00,,2013-05-01 11:11:00,
2013-05-01 05:21:00,27.0,24.0,-100.00,WNW,297,0.0,0.0,90,0.00,,,0.00,,2013-05-01 11:21:00,
2013-05-01 05:32:00,27.0,25.0,-100.00,WNW,297,0.0,0.0,91,0.00,,,0.00,,2013-05-01 11:32:00,
2013-05-01 05:42:00,27.0,25.0,-100.00,WNW,297,0.0,0.0,91,0.00,,,0.00,,2013-05-01 11:42:00,
2013-05-01 05:51:00,26.0,24.0,-100.00,WNW,297,0.0,0.0,91,0.00,,,0.00,,2013-05-01 11:51:00,
2013-05-01 06:01:00,26.0,24.0,-100.00,WNW,297,0.0,0.0,91,0.00,,,0.00,,2013-05-01 12:01:00,
2013-05-01 06:11:00,26.0,24.0,-100.00,WNW,297,0.0,0.0,91,0.00,,,0.00,,2013-05-01 12:11:00,
2013-05-01 06:21:00,26.0,24.0,-100.00,WNW,297,0.0,0.0,91,0.00,,,0.00,,2013-05-01 12:21:00,
2013-05-01 06:31:00,26.0,24.0,-100.00,WNW,297,0.0,0.0,91,0.00,,,0.00,,2013-05-01 12:31:00,
2013-05-01 06:41:00,26.0,24.0,-100.00,WNW,297,0.0,0.0,91,0.00,,,0.00,,2013-05-01 12:41:00,
2013-05-01 06:52:00,26.0,24.0,-100.00,WNW,297,0.0,0.0,91,0.00,,,0.00,,2013-05-01 12:52:00,
2013-05-01 07:01:00,26.0,23.0,-100.00,WNW,297,0.0,0.0,90,0.00,,,0.00,,2013-05-01 13:01:00,
2013-05-01 07:11:00,26.0,23.0,-100.00,WNW,297,0.0,0.0,90,0.00,,,0.00,,2013-05-01 13:11:00,
2013-05-01 07:21:00,26.0,24.0,-100.00,WNW,297,0.0,0.0,91,0.00,,,0.00,,2013-05-01 13:21:00,
2013-05-01 07:31:00,26.0,23.0,-100.00,WNW,297,0.0,0.0,90,0.00,,,0.00,,2013-05-01 13:31:00,
2013-05-01 07:42:00,26.0,23.0,-100.00,WNW,297,0.0,0.0,90,0.00,,,0.00,,2013-05-01 13:42:00,
2013-05-01 07:52:00,26.0,23.0,-100.00,WNW,297,0.0,0.0,89,0.00,,,0.00,,2013-05-01 13:52:00,
2013-05-01 08:01:00,27.0,24.0,-100.00,WNW,297,0.0,0.0,89,0.00,,,0.00,,2013-05-01 14:01:00,
2013-05-01 08:11:00,27.0,24.0,-100.00,WNW,297,0.0,0.0,89,0.00,,,0.00,,2013-05-01 14:11:00,
2013-05-01 08:21:00,27.0,24.0,-100.00,WNW,297,0.0,0.0,89,0.00,,,0.00,,2013-05-01 14:21:00,
2013-05-01 08:31:00,27.0,24.0,-100.00,WNW,297,0.0,0.0,88,0.00,,,0.00,,2013-05-01 14:31:00,
2013-05-01 08:41:00,27.0,24.0,-100.00,WNW,297,0.0,0.0,88,0.00,,,0.00,,2013-05-01 14:41:00,
2013-05-01 08:52:00,28.0,25.0,-100.00,WNW,297,0.0,0.0,87,0.00,,,0.00,,2013-05-01 14:52:00,
2013-05-01 09:01:00,28.0,25.0,-100.00,WNW,296,0.0,0.0,87,0.00,,,0.00,,2013-05-01 15:01:00,
2013-05-01 09:11:00,28.0,25.0,-100.00,WNW,296,0.0,0.0,87,0.00,,,0.00,,2013-05-01 15:11:00,
2013-05-01 09:21:00,28.0,24.0,-100.00,WNW,295,0.0,0.0,85,0.00,,,0.00,,2013-05-01 15:21:00,
2013-05-01 09:32:00,29.0,25.0,-100.00,WNW,295,0.0,1.0,85,0.00,,,0.00,,2013-05-01 15:32:00,
2013-05-01 09:42:00,29.0,25.0,-100.00,WNW,295,0.0,1.0,85,0.00,,,0.00,,2013-05-01 15:42:00,
2013-05-01 09:53:00,30.0,25.0,-100.00,West,277,1.0,3.0,83,0.00,,,0.00,,2013-05-01 15:53:00,
2013-05-01 10:02:00,30.0,25.0,-100.00,SSW,196,1.0,4.0,80,0.00,,,0.00,,2013-05-01 16:02:00,
2013-05-01 10:12:00,30.0,25.0,-100.00,SSW,196,1.0,4.0,80,0.00,,,0.00,,2013-05-01 16:12:00,
2013-05-01 10:22:00,31.0,25.0,-100.00,SSW,197,1.0,4.0,78,0.00,,,0.00,,2013-05-01 16:22:00,
2013-05-01 10:31:00,30.0,24.0,-100.00,SSW,197,1.0,3.0,79,0.00,,,0.00,,2013-05-01 16:31:00,
2013-05-01 10:42:00,30.0,24.0,-100.00,SSW,197,1.0,3.0,79,0.00,,,0.00,,2013-05-01 16:42:00,
2013-05-01 10:53:00,29.0,24.0,-100.00,East,100,1.0,5.0,82,0.01,,,0.01,,2013-05-01 16:53:00,
2013-05-01 11:02:00,29.0,25.0,-100.00,ESE,102,1.0,3.0,85,0.01,,,0.01,,2013-05-01 17:02:00,
2013-05-01 11:11:00,29.0,25.0,-100.00,ESE,102,1.0,3.0,85,0.01,,,0.01,,2013-05-01 17:11:00,
2013-05-01 11:21:00,29.0,25.0,-100.00,ESE,112,2.0,5.0,83,0.02,,,0.02,,2013-05-01 17:21:00,
2013-05-01 11:31:00,30.0,25.0,-100.00,ESE,105,1.0,3.0,82,0.04,,,0.04,,2013-05-01 17:31:00,
2013-05-01 11:41:00,30.0,25.0,-100.00,ESE,105,1.0,3.0,82,0.04,,,0.04,,2013-05-01 17:41:00,
2013-05-01 11:52:00,30.0,25.0,-100.00,NNW,347,2.0,4.0,81,0.04,,,0.05,,2013-05-01 17:52:00,
2013-05-01 12:01:00,31.0,26.0,-100.00,East,89,0.0,4.0,81,0.06,,,0.07,,2013-05-01 18:01:00,
2013-05-01 12:11:00,31.0,26.0,-100.00,East,89,0.0,4.0,81,0.06,,,0.07,,2013-05-01 18:11:00,
2013-05-01 12:22:00,31.0,25.0,-100.00,WNW,303,2.0,6.0,78,0.06,,,0.08,,2013-05-01 18:22:00,
2013-05-01 12:32:00,30.0,25.0,-100.00,NW,305,2.0,4.0,83,0.05,,,0.09,,2013-05-01 18:32:00,
2013-05-01 12:41:00,30.0,25.0,-100.00,NW,305,2.0,4.0,83,0.05,,,0.09,,2013-05-01 18:41:00,
2013-05-01 12:52:00,30.0,25.0,-100.00,WNW,301,2.0,4.0,82,0.05,,,0.10,,2013-05-01 18:52:00,
2013-05-01 13:01:00,31.0,25.0,-100.00,West,276,3.0,5.0,77,0.04,,,0.11,,2013-05-01 19:01:00,
2013-05-01 13:11:00,31.0,25.0,-100.00,West,276,3.0,5.0,77,0.04,,,0.11,,2013-05-01 19:11:00,
2013-05-01 13:22:00,33.0,27.0,-100.00,SSW,212,1.0,5.0,77,0.06,,,0.14,,2013-05-01 19:22:00,
2013-05-01 13:31:00,34.0,27.0,-100.00,SSW,211,1.0,4.0,74,0.08,,,0.17,,2013-05-01 19:31:00,
2013-05-01 13:42:00,34.0,27.0,-100.00,SSW,211,1.0,4.0,74,0.08,,,0.17,,2013-05-01 19:42:00,
2013-05-01 13:52:00,34.0,27.0,-100.00,SSW,211,1.0,4.0,74,0.08,,,0.17,,2013-05-01 19:52:00,
2013-05-01 14:01:00,34.0,27.0,-100.00,SSW,211,1.0,4.0,74,0.08,,,0.17,,2013-05-01 20:01:00,
2013-05-01 14:11:00,34.0,27.0,-100.00,SSW,211,1.0,4.0,74,0.08,,,0.17,,2013-05-01 20:11:00,